createdAt,value
2023-05-12T00:04:02.036Z,53.70
2023-05-12T00:08:06.785Z,53.30
2023-05-12T00:12:10.674Z,53.70
2023-05-12T00:16:15.593Z,53.93
2023-05-12T00:20:18.970Z,53.70
2023-05-12T00:24:23.560Z,54.10
2023-05-12T00:28:26.766Z,54.35
2023-05-12T00:32:29.936Z,53.80
2023-05-12T00:36:32.949Z,54.37
2023-05-12T00:40:37.389Z,54.00
2023-05-12T00:44:40.570Z,53.80
2023-05-12T00:48:43.720Z,54.78
2023-05-12T00:52:47.800Z,53.83
2023-05-12T00:56:52.837Z,54.00
2023-05-12T01:00:56.373Z,53.80
2023-05-12T01:04:59.563Z,54.00
2023-05-12T01:09:02.878Z,54.20
2023-05-12T01:13:07.219Z,54.67
2023-05-12T01:17:13.411Z,53.90
2023-05-12T01:21:17.294Z,53.95
2023-05-12T01:25:24.754Z,54.00
2023-05-12T01:29:30.097Z,54.15
2023-05-12T01:33:33.864Z,53.75
2023-05-12T01:37:36.930Z,52.45
2023-05-12T01:41:39.930Z,53.57
2023-05-12T01:45:44.259Z,53.70
2023-05-12T01:49:47.241Z,54.38
2023-05-12T01:53:50.233Z,53.47
2023-05-12T01:57:53.234Z,54.72
2023-05-12T02:06:00.495Z,54.10
2023-05-12T02:10:03.632Z,54.27
2023-05-12T02:14:06.706Z,53.45
2023-05-12T02:18:11.075Z,54.10
2023-05-12T02:22:14.083Z,53.90
2023-05-12T02:26:17.128Z,53.80
2023-05-12T02:30:20.282Z,54.13
2023-05-12T02:34:24.806Z,53.90
2023-05-12T02:42:35.459Z,53.88
2023-05-12T02:46:38.801Z,54.05
2023-05-12T02:50:43.266Z,54.20
2023-05-12T02:54:46.244Z,54.00
2023-05-12T02:58:49.237Z,53.90
2023-05-12T03:02:52.438Z,54.00
2023-05-12T03:06:57.857Z,53.92
2023-05-12T03:11:00.874Z,54.00
2023-05-12T03:15:04.936Z,53.60
2023-05-12T03:19:08.243Z,54.17
2023-05-12T03:23:12.646Z,54.00
2023-05-12T03:27:15.632Z,54.40
2023-05-12T03:31:18.646Z,52.80
2023-05-12T03:35:21.997Z,54.38
2023-05-12T03:39:26.557Z,53.75
2023-05-12T03:43:29.551Z,54.55
2023-05-12T03:47:32.588Z,54.15
2023-05-12T03:51:35.881Z,53.83
2023-05-12T03:55:40.288Z,54.10
2023-05-12T03:59:43.264Z,53.40
2023-05-12T04:03:48.803Z,53.30
2023-05-12T04:07:52.092Z,54.10
2023-05-12T04:11:56.424Z,53.47
2023-05-12T04:16:00.256Z,54.17
2023-05-12T04:20:04.300Z,53.70
2023-05-12T04:24:07.576Z,54.40
2023-05-12T04:28:12.360Z,53.95
2023-05-12T04:32:15.549Z,54.20
2023-05-12T04:36:18.687Z,53.80
2023-05-12T04:40:21.969Z,53.90
2023-05-12T04:44:26.497Z,53.60
2023-05-12T04:48:29.699Z,54.25
2023-05-12T04:52:34.153Z,53.58
2023-05-12T04:56:37.280Z,53.65
2023-05-12T05:00:41.762Z,55.38
2023-05-12T05:04:48.287Z,53.50
2023-05-12T05:08:51.784Z,53.83
2023-05-12T05:12:54.768Z,53.60
2023-05-12T05:16:59.964Z,53.30
2023-05-12T05:21:03.018Z,53.40
2023-05-12T05:25:07.245Z,53.40
2023-05-12T05:29:13.121Z,53.40
2023-05-12T05:33:17.467Z,53.25
2023-05-12T05:37:20.520Z,53.10
2023-05-12T05:41:23.750Z,53.20
2023-05-12T05:45:28.090Z,53.50
2023-05-12T05:49:32.541Z,53.93
2023-05-12T05:53:35.508Z,52.75
2023-05-12T05:57:38.546Z,53.00
2023-05-12T06:01:41.614Z,53.13
2023-05-12T06:05:46.145Z,53.15
2023-05-12T06:09:56.169Z,53.10
2023-05-12T06:13:59.116Z,53.60
2023-05-12T06:18:02.179Z,53.00
2023-05-12T06:22:06.803Z,53.03
2023-05-12T06:26:11.805Z,52.70
2023-05-12T06:30:16.394Z,53.90
2023-05-12T06:34:19.577Z,52.60
2023-05-12T06:38:23.890Z,53.90
2023-05-12T06:42:26.930Z,53.67
2023-05-12T06:46:30.982Z,53.30
2023-05-12T06:50:34.095Z,52.75
2023-05-12T06:54:38.469Z,53.70
2023-05-12T06:58:41.450Z,53.60
2023-05-12T07:02:44.504Z,53.40
2023-05-12T07:06:47.543Z,53.60
2023-05-12T07:10:52.128Z,53.83
2023-05-12T07:14:55.132Z,52.47
2023-05-12T07:18:58.348Z,53.38
2023-05-12T07:23:01.380Z,54.10
2023-05-12T07:27:06.223Z,53.55
2023-05-12T07:35:12.580Z,54.10
2023-05-12T07:39:19.351Z,53.70
2023-05-12T09:00:40.397Z,53.50
2023-05-12T09:04:45.311Z,54.00
2023-05-12T09:12:55.723Z,53.80
2023-05-12T09:17:05.005Z,54.40
2023-05-12T09:21:09.646Z,53.15
2023-05-12T09:25:19.925Z,54.10
2023-05-12T09:29:30.521Z,54.25
2023-05-12T09:33:36.159Z,54.63
2023-05-12T09:37:40.907Z,53.95
2023-05-12T09:41:44.462Z,54.60
2023-05-12T09:45:50.211Z,54.90
2023-05-12T09:49:55.155Z,55.20
2023-05-12T09:53:59.781Z,54.28
2023-05-12T09:58:06.454Z,55.00
2023-05-12T10:02:11.090Z,55.57
2023-05-12T10:06:16.837Z,54.30
2023-05-12T10:10:24.285Z,55.30
2023-05-12T10:18:32.511Z,54.53
2023-05-12T10:22:36.346Z,56.15
2023-05-12T10:26:42.892Z,55.35
2023-05-12T10:35:12.701Z,54.65
2023-05-12T10:39:18.472Z,54.55
2023-05-12T10:43:28.371Z,55.60
2023-05-12T10:48:28.416Z,55.20
2023-05-12T10:56:31.314Z,55.67
2023-05-12T11:00:46.684Z,56.40
2023-05-12T11:04:51.837Z,56.20
2023-05-12T11:08:57.077Z,56.40
2023-05-12T11:13:01.270Z,56.60
2023-05-12T11:17:06.246Z,56.60
2023-05-12T11:21:13.092Z,56.47
2023-05-12T11:25:16.785Z,55.95
2023-05-12T11:29:20.552Z,56.10
2023-05-12T11:33:25.232Z,56.20
2023-05-12T11:37:28.434Z,55.35
2023-05-12T11:41:31.507Z,56.80
2023-05-12T11:45:36.148Z,57.17
2023-05-12T11:49:49.073Z,56.83
2023-05-12T11:53:53.829Z,55.40
2023-05-12T11:57:58.818Z,55.90
2023-05-12T12:02:04.124Z,56.17
2023-05-12T12:06:10.893Z,57.03
2023-05-12T12:10:17.861Z,56.83
2023-05-12T12:14:20.863Z,56.80
2023-05-12T12:18:23.920Z,56.40
2023-05-12T12:22:34.523Z,56.35
2023-05-12T12:26:39.604Z,55.97
2023-05-12T12:30:42.721Z,56.00
2023-05-12T12:34:46.412Z,55.50
2023-05-12T12:38:50.736Z,55.45
2023-05-12T12:43:00.570Z,56.20
2023-05-12T12:47:04.387Z,55.83
2023-05-12T12:51:07.452Z,57.17
2023-05-12T12:55:11.911Z,55.90
2023-05-12T12:59:15.136Z,56.83
2023-05-12T13:03:20.186Z,56.90
2023-05-12T13:07:23.576Z,57.40
2023-05-12T13:11:28.238Z,56.90
2023-05-12T13:15:32.379Z,56.90
2023-05-12T13:19:37.798Z,57.70
2023-05-12T13:23:41.226Z,57.45
2023-05-12T13:27:45.686Z,57.45
2023-05-12T13:31:48.668Z,57.55
2023-05-12T13:35:51.681Z,57.35
2023-05-12T13:39:54.931Z,56.30
2023-05-12T13:43:59.452Z,57.50
2023-05-12T13:48:02.464Z,57.50
2023-05-12T13:52:06.050Z,57.45
2023-05-12T13:56:09.713Z,57.40
2023-05-12T14:00:17.283Z,57.13
2023-05-12T14:04:20.341Z,57.45
2023-05-12T14:08:23.346Z,57.30
2023-05-12T14:12:26.710Z,57.55
2023-05-12T14:16:31.381Z,56.83
2023-05-12T14:20:34.879Z,57.60
2023-05-12T14:24:37.878Z,56.23
2023-05-12T14:28:42.010Z,57.30
2023-05-12T14:32:46.451Z,55.45
2023-05-12T14:36:49.500Z,56.90
2023-05-12T14:40:52.505Z,56.50
2023-05-12T14:44:55.810Z,56.75
2023-05-12T14:49:00.255Z,56.60
2023-05-12T14:53:03.237Z,57.15
2023-05-12T14:57:06.277Z,56.45
2023-05-12T15:01:09.707Z,56.70
2023-05-12T15:05:14.518Z,56.13
2023-05-12T15:09:17.589Z,56.95
2023-05-12T15:13:22.585Z,56.10
2023-05-12T15:17:27.271Z,56.63
2023-05-12T15:21:34.829Z,55.90
2023-05-12T15:25:40.339Z,55.03
2023-05-12T15:29:43.381Z,56.90
2023-05-12T15:33:46.362Z,57.15
2023-05-12T15:37:50.732Z,55.70
2023-05-12T15:42:00.213Z,57.40
2023-05-12T15:46:04.642Z,56.35
2023-05-12T15:50:10.390Z,57.17
2023-05-12T15:54:14.987Z,56.72
2023-05-12T15:58:17.956Z,57.30
2023-05-12T16:02:21.980Z,54.90
2023-05-12T16:06:24.961Z,55.85
2023-05-12T16:10:29.301Z,57.45
2023-05-12T16:14:32.264Z,57.40
2023-05-12T16:18:35.371Z,56.35
2023-05-12T16:22:39.663Z,56.30
2023-05-12T16:26:44.146Z,57.03
2023-05-12T16:30:47.266Z,56.87
2023-05-12T16:34:50.529Z,56.90
2023-05-12T16:38:53.832Z,56.50
2023-05-12T16:42:58.417Z,57.03
2023-05-12T16:47:01.393Z,57.65
2023-05-12T16:51:06.792Z,56.40
2023-05-12T16:55:11.136Z,56.90
2023-05-12T16:59:15.754Z,56.40
2023-05-12T17:03:18.849Z,56.40
2023-05-12T17:07:21.865Z,56.80
2023-05-12T17:11:25.989Z,57.00
2023-05-12T17:15:30.458Z,57.20
2023-05-12T17:19:34.602Z,56.45
2023-05-12T17:23:37.737Z,56.30
2023-05-12T17:27:40.799Z,56.23
2023-05-12T17:31:45.222Z,57.20
2023-05-12T17:36:03.761Z,56.90
2023-05-12T17:40:17.132Z,57.40
2023-05-12T17:44:20.156Z,57.27
2023-05-12T17:48:26.378Z,57.00
2023-05-12T17:52:29.430Z,57.40
2023-05-12T17:56:32.443Z,56.20
2023-05-12T18:00:35.524Z,55.93
2023-05-12T18:04:40.023Z,55.90
2023-05-12T18:08:43.403Z,56.90
2023-05-12T18:12:47.285Z,57.00
2023-05-12T18:16:51.357Z,56.35
2023-05-12T18:20:56.095Z,57.17
2023-05-12T18:24:59.117Z,57.00
2023-05-12T18:29:02.151Z,56.55
2023-05-12T18:33:05.755Z,56.10
2023-05-12T18:37:15.327Z,55.70
2023-05-12T18:41:18.920Z,57.13
2023-05-12T18:45:22.868Z,56.30
2023-05-12T18:49:26.046Z,57.13
2023-05-12T18:53:30.398Z,58.42
2023-05-12T18:57:33.439Z,59.40
2023-05-12T19:01:36.719Z,55.67
2023-05-12T19:05:43.218Z,56.93
2023-05-12T19:09:47.849Z,56.30
2023-05-12T19:13:52.336Z,56.35
2023-05-12T19:17:55.395Z,56.60
2023-05-12T19:21:58.526Z,56.85
2023-05-12T19:26:02.864Z,55.50
2023-05-12T19:30:06.796Z,56.30
2023-05-12T19:34:10.108Z,56.63
2023-05-12T19:38:13.109Z,56.30
